createdAt,value
2022-11-03T00:02:02.578Z,86495.91
2022-11-03T00:04:29.629Z,86485.50
2022-11-03T00:06:56.912Z,86457.94
2022-11-03T00:09:27.245Z,86488.25
2022-11-03T00:11:54.511Z,86481.38
2022-11-03T00:14:21.422Z,86489.63
2022-11-03T00:16:48.724Z,86479.94
2022-11-03T00:19:17.423Z,86464.13
2022-11-03T00:21:45.292Z,86461.34
2022-11-03T00:24:13.224Z,86472.38
2022-11-03T00:26:40.447Z,86485.50
2022-11-03T00:29:10.611Z,86457.91
2022-11-03T00:31:40.158Z,86481.31
2022-11-03T00:34:07.819Z,86471.69
2022-11-03T00:36:37.387Z,86473.09
2022-11-03T00:39:05.459Z,86473.16
2022-11-03T00:41:32.713Z,86492.63
2022-11-03T00:43:59.769Z,86474.56
2022-11-03T00:46:27.588Z,86475.25
2022-11-03T00:48:54.564Z,86456.69
2022-11-03T00:51:24.883Z,86467.72
2022-11-03T00:53:54.154Z,86430.44
2022-11-03T00:56:40.930Z,86449.06
2022-11-03T00:59:09.557Z,86442.22
2022-11-03T01:01:47.469Z,86469.75
2022-11-03T01:04:34.937Z,86471.88
2022-11-03T01:07:03.254Z,86449.06
2022-11-03T01:09:35.884Z,86469.72
2022-11-03T01:12:07.947Z,86465.66
2022-11-03T01:14:49.828Z,86467.06
2022-11-03T01:17:25.182Z,86473.31
2022-11-03T01:19:52.798Z,86445.75
2022-11-03T01:22:20.665Z,86466.41
2022-11-03T01:24:47.719Z,86466.44
2022-11-03T01:27:17.393Z,86465.72
2022-11-03T01:29:44.636Z,86425.00
2022-11-03T01:32:11.852Z,86442.34
2022-11-03T01:34:39.284Z,86459.50
2022-11-03T01:37:06.907Z,86427.75
2022-11-03T01:39:34.003Z,86436.00
2022-11-03T01:42:01.078Z,86447.09
2022-11-03T01:44:31.208Z,86474.03
2022-11-03T01:47:01.678Z,86455.44
2022-11-03T01:49:31.129Z,86470.66
2022-11-03T01:52:20.341Z,86458.25
2022-11-03T01:54:54.661Z,86469.28
2022-11-03T01:57:27.344Z,86464.47
2022-11-03T01:59:58.472Z,86437.56
2022-11-03T02:02:27.667Z,86465.22
2022-11-03T02:04:58.272Z,86463.16
2022-11-03T02:07:39.341Z,86458.38
2022-11-03T02:10:06.868Z,86418.34
2022-11-03T02:12:34.881Z,86463.94
2022-11-03T02:15:15.260Z,86432.19
2022-11-03T02:17:44.585Z,86456.31
2022-11-03T02:20:21.320Z,86446.00
2022-11-03T02:22:48.169Z,86459.81
2022-11-03T02:25:43.060Z,86443.25
2022-11-03T02:28:12.147Z,86454.28
2022-11-03T02:31:02.995Z,86432.22
2022-11-03T02:33:29.961Z,86454.28
2022-11-03T02:36:19.977Z,86462.63
2022-11-03T02:39:09.337Z,86469.53
2022-11-03T02:41:39.114Z,86436.38
2022-11-03T02:44:12.239Z,86468.16
2022-11-03T02:46:41.922Z,86468.88
2022-11-03T02:49:08.910Z,86455.03
2022-11-03T02:51:35.934Z,86427.34
2022-11-03T02:54:21.950Z,86461.19
2022-11-03T02:57:01.226Z,86430.81
2022-11-03T02:59:33.851Z,86440.53
2022-11-03T03:02:09.449Z,86455.00
2022-11-03T03:04:42.901Z,86449.47
2022-11-03T03:07:34.262Z,86450.19
2022-11-03T03:10:16.772Z,86442.59
2022-11-03T03:12:49.276Z,86448.84
2022-11-03T03:15:18.673Z,86446.75
2022-11-03T03:17:52.045Z,86435.03
2022-11-03T03:20:31.782Z,86436.44
2022-11-03T03:23:12.891Z,86458.41
2022-11-03T03:25:49.396Z,86434.91
2022-11-03T03:28:25.088Z,86425.28
2022-11-03T03:30:55.058Z,86428.03
2022-11-03T03:33:23.005Z,86450.75
2022-11-03T03:35:53.034Z,86446.59
2022-11-03T03:38:27.912Z,86434.22
2022-11-03T03:40:56.911Z,86452.19
2022-11-03T03:43:26.732Z,86418.38
2022-11-03T03:45:58.312Z,86399.09
2022-11-03T03:48:25.392Z,86430.16
2022-11-03T03:50:53.169Z,86440.47
2022-11-03T03:53:20.390Z,86379.75
2022-11-03T03:55:51.109Z,86419.06
2022-11-03T03:58:18.620Z,86462.53
2022-11-03T04:00:45.820Z,86392.06
2022-11-03T04:03:21.899Z,86441.06
2022-11-03T04:05:49.450Z,86430.06
2022-11-03T04:08:17.536Z,86449.41
2022-11-03T04:11:04.187Z,86448.69
2022-11-03T04:13:50.328Z,86405.19
2022-11-03T04:16:35.968Z,86450.09
2022-11-03T04:19:21.707Z,86452.13
2022-11-03T04:22:07.601Z,86441.72
2022-11-03T04:24:34.604Z,86414.13
2022-11-03T04:27:15.887Z,86421.72
2022-11-03T04:29:42.986Z,86385.16
2022-11-03T04:32:16.203Z,86374.09
2022-11-03T04:34:43.366Z,86378.97
2022-11-03T04:37:13.489Z,86367.97
2022-11-03T04:39:40.876Z,86356.91
2022-11-03T04:42:21.887Z,86416.81
2022-11-03T04:44:49.454Z,86352.00
2022-11-03T04:47:17.735Z,86439.56
2022-11-03T04:49:48.616Z,86408.56
2022-11-03T04:52:22.317Z,86425.13
2022-11-03T04:54:53.607Z,86444.41
2022-11-03T04:57:20.608Z,86458.28
2022-11-03T04:59:50.584Z,86450.06
2022-11-03T05:02:21.144Z,86451.34
2022-11-03T05:04:48.079Z,86432.72
2022-11-03T05:07:35.008Z,86451.34
2022-11-03T05:10:04.637Z,86420.97
2022-11-03T05:12:31.569Z,86434.75
2022-11-03T05:14:59.109Z,86462.44
2022-11-03T05:17:28.490Z,86423.09
2022-11-03T05:20:00.308Z,86424.41
2022-11-03T05:22:34.123Z,86433.44
2022-11-03T05:25:04.022Z,86415.50
2022-11-03T05:27:30.997Z,86437.59
2022-11-03T05:30:01.033Z,86440.31
2022-11-03T05:32:33.092Z,86451.34
2022-11-03T05:35:00.501Z,86460.97
2022-11-03T05:37:35.396Z,86413.44
2022-11-03T05:40:05.139Z,86472.00
2022-11-03T05:42:36.525Z,86454.09
2022-11-03T05:45:37.335Z,86467.94
2022-11-03T05:48:14.059Z,86463.81
2022-11-03T05:50:42.371Z,86482.41
2022-11-03T05:53:29.864Z,86485.88
2022-11-03T05:56:02.491Z,86449.97
2022-11-03T05:58:35.211Z,86495.47
2022-11-03T06:01:05.287Z,86492.75
2022-11-03T06:03:36.677Z,86465.78
2022-11-03T06:06:15.535Z,86474.03
2022-11-03T06:08:46.013Z,86494.03
2022-11-03T06:11:26.120Z,86491.16
2022-11-03T06:13:53.227Z,86466.44
2022-11-03T06:16:59.959Z,86489.84
2022-11-03T06:19:34.792Z,86456.75
2022-11-03T06:22:26.395Z,86503.72
2022-11-03T06:24:59.362Z,86484.47
2022-11-03T06:27:31.042Z,86509.28
2022-11-03T06:30:02.033Z,86487.84
2022-11-03T06:32:29.557Z,86441.66
2022-11-03T06:34:58.656Z,86509.09
2022-11-03T06:37:32.834Z,86476.69
2022-11-03T06:40:11.973Z,86518.75
2022-11-03T06:42:40.135Z,86504.91
2022-11-03T06:45:20.439Z,86495.28
2022-11-03T06:47:47.739Z,86486.94
2022-11-03T06:50:32.570Z,86519.97
2022-11-03T06:53:04.500Z,86526.91
2022-11-03T06:55:34.627Z,86503.44
2022-11-03T06:58:28.610Z,86524.03
2022-11-03T07:01:03.556Z,86533.00
2022-11-03T07:03:35.419Z,86486.00
2022-11-03T07:06:11.362Z,86523.88
2022-11-03T07:08:45.532Z,86525.25
2022-11-03T07:11:20.015Z,86522.44
2022-11-03T07:13:49.618Z,86487.94
2022-11-03T07:16:36.961Z,86517.50
2022-11-03T07:19:06.053Z,86507.75
2022-11-03T07:21:46.475Z,86524.31
2022-11-03T07:24:43.567Z,86508.53
2022-11-03T07:27:27.009Z,86531.94
2022-11-03T07:29:58.881Z,86524.78
2022-11-03T07:32:33.243Z,86531.03
2022-11-03T07:35:05.816Z,86527.44
2022-11-03T07:37:32.780Z,86526.72
2022-11-03T07:39:59.662Z,86532.91
2022-11-03T07:42:27.638Z,86518.84
2022-11-03T07:45:00.048Z,86480.25
2022-11-03T07:47:29.149Z,86518.84
2022-11-03T07:49:56.678Z,86492.50
2022-11-03T07:52:26.039Z,86514.34
2022-11-03T07:54:57.244Z,86482.56
2022-11-03T07:57:32.288Z,86494.91
2022-11-03T08:00:09.094Z,86506.31
2022-11-03T08:02:51.651Z,86506.84
2022-11-03T08:07:46.352Z,86505.91
2022-11-03T08:10:13.898Z,86480.25
2022-11-03T08:12:40.792Z,86499.97
2022-11-03T08:15:08.276Z,86478.44
2022-11-03T08:17:35.231Z,86447.88
2022-11-03T08:20:02.164Z,86475.34
2022-11-03T08:22:30.078Z,86466.69
2022-11-03T08:24:56.944Z,86495.56
2022-11-03T08:27:23.885Z,86482.88
2022-11-03T08:29:50.769Z,86480.44
2022-11-03T08:32:17.665Z,86478.81
2022-11-03T08:34:44.553Z,86479.25
2022-11-03T08:37:11.414Z,86459.78
2022-11-03T08:39:38.269Z,86441.59
2022-11-03T08:42:05.218Z,86479.22
2022-11-03T08:44:32.088Z,86449.47
2022-11-03T08:46:58.965Z,86460.31
2022-11-03T08:49:25.925Z,86453.69
2022-11-03T08:51:53.233Z,86475.38
2022-11-03T08:54:20.073Z,86471.66
2022-11-03T08:56:49.304Z,86455.59
2022-11-03T08:59:18.212Z,86474.59
2022-11-03T09:01:45.226Z,86461.31
2022-11-03T09:04:12.202Z,86476.13
2022-11-03T09:06:39.388Z,86471.63
2022-11-03T09:11:53.226Z,86471.66
2022-11-03T09:14:20.171Z,86440.56
2022-11-03T09:16:47.038Z,86470.44
2022-11-03T09:19:13.965Z,86449.34
2022-11-03T09:21:40.835Z,86470.44
2022-11-03T09:24:08.029Z,86448.81
2022-11-03T09:26:35.004Z,86458.19
2022-11-03T09:29:01.903Z,86444.00
2022-11-03T09:31:29.394Z,86431.50
2022-11-03T09:33:56.373Z,86438.28
2022-11-03T09:36:23.235Z,86430.38
2022-11-03T09:38:50.145Z,86439.03
2022-11-03T09:41:27.581Z,86418.25
2022-11-03T09:44:07.175Z,86448.16
2022-11-03T09:46:35.400Z,86439.41
2022-11-03T09:49:04.859Z,86423.00
2022-11-03T09:51:32.832Z,86413.75
2022-11-03T09:54:04.647Z,86417.78
2022-11-03T09:56:32.488Z,86438.88
2022-11-03T09:59:00.134Z,86418.34
2022-11-03T10:01:27.682Z,86433.09
2022-11-03T10:03:59.713Z,86414.38
2022-11-03T10:06:26.659Z,86433.97
2022-11-03T10:08:53.579Z,86412.88
2022-11-03T10:11:20.437Z,86429.38
2022-11-03T10:13:53.039Z,86427.28
2022-11-03T10:16:23.285Z,86430.06
2022-11-03T10:18:50.730Z,86406.81
2022-11-03T10:21:17.606Z,86420.28
2022-11-03T10:23:45.291Z,86403.09
2022-11-03T10:26:18.798Z,86406.31
2022-11-03T10:29:05.654Z,86415.38
2022-11-03T10:31:34.029Z,86404.19
2022-11-03T10:34:00.986Z,86410.31
2022-11-03T10:36:30.367Z,86376.63
2022-11-03T10:38:58.162Z,86380.59
2022-11-03T10:41:28.649Z,86390.84
2022-11-03T10:44:31.431Z,86395.03
2022-11-03T10:47:07.024Z,86393.19
2022-11-03T10:49:43.243Z,86372.94
2022-11-03T10:52:21.140Z,86374.03
2022-11-03T10:54:49.879Z,86375.38
2022-11-03T10:57:18.080Z,86363.50
2022-11-03T10:59:47.235Z,86367.53
2022-11-03T11:02:19.261Z,86361.91
2022-11-03T11:04:48.164Z,86376.00
2022-11-03T11:07:32.764Z,86358.72
2022-11-03T11:10:14.098Z,86359.13
2022-11-03T11:13:04.210Z,86345.38
2022-11-03T11:15:39.303Z,86367.88
2022-11-03T11:18:06.291Z,86376.22
2022-11-03T11:20:43.999Z,86357.63
2022-11-03T11:23:29.204Z,86355.69
2022-11-03T11:26:11.438Z,86361.53
2022-11-03T11:28:46.913Z,86354.03
2022-11-03T11:31:22.763Z,86348.94
2022-11-03T11:33:50.120Z,86350.50
2022-11-03T11:36:23.112Z,86321.94
2022-11-03T11:38:52.362Z,86348.94
2022-11-03T11:41:20.951Z,86320.09
2022-11-03T11:43:47.952Z,86336.69
2022-11-03T11:46:23.885Z,86338.91
2022-11-03T11:49:15.527Z,86322.97
2022-11-03T11:51:42.715Z,86333.88
2022-11-03T11:54:18.577Z,86317.47
2022-11-03T11:56:48.623Z,86323.19
2022-11-03T11:59:25.329Z,86318.06
2022-11-03T12:01:56.858Z,86298.78
2022-11-03T12:04:33.286Z,86318.72
2022-11-03T12:07:00.248Z,86304.22
2022-11-03T12:09:28.346Z,86313.75
2022-11-03T12:12:07.998Z,86305.03
2022-11-03T12:14:37.886Z,86285.69
2022-11-03T12:17:17.116Z,86308.50
2022-11-03T12:19:45.087Z,86297.09
2022-11-03T12:22:24.310Z,86302.41
2022-11-03T12:25:02.205Z,86305.16
2022-11-03T12:27:29.291Z,86290.81
2022-11-03T12:29:58.233Z,86292.91
2022-11-03T12:32:33.835Z,86278.56
2022-11-03T12:35:06.437Z,86295.66
2022-11-03T12:37:33.437Z,86301.78
2022-11-03T12:40:00.429Z,86286.69
2022-11-03T12:42:27.448Z,86298.22
2022-11-03T12:44:54.368Z,86298.91
2022-11-03T12:47:21.478Z,86271.34
2022-11-03T12:49:48.650Z,86292.38
2022-11-03T12:52:16.199Z,86292.09
2022-11-03T12:54:43.106Z,86284.94
2022-11-03T12:57:10.069Z,86285.47
2022-11-03T12:59:37.059Z,86267.28
2022-11-03T13:02:04.440Z,86243.88
2022-11-03T13:04:31.668Z,86286.16
2022-11-03T13:06:58.836Z,86267.78
2022-11-03T13:09:26.180Z,86287.66
2022-11-03T13:12:11.824Z,86289.19
2022-11-03T13:14:38.770Z,86264.53
2022-11-03T13:17:05.649Z,86264.00
2022-11-03T13:19:32.555Z,86285.19
2022-11-03T13:22:00.070Z,86271.06
2022-11-03T13:24:26.975Z,86258.06
2022-11-03T13:26:53.881Z,86292.31
2022-11-03T13:29:20.864Z,86283.38
2022-11-03T13:31:47.880Z,86276.16
2022-11-03T13:34:14.723Z,86289.88
2022-11-03T13:36:41.614Z,86256.06
2022-11-03T13:39:08.494Z,86300.00
2022-11-03T13:41:37.974Z,86286.03
2022-11-03T13:44:04.920Z,86289.44
2022-11-03T13:46:31.925Z,86297.56
2022-11-03T13:51:45.778Z,86290.56
2022-11-03T13:59:46.522Z,86264.59
2022-11-03T14:05:01.420Z,86302.81
2022-11-03T14:07:28.949Z,86289.56
2022-11-03T14:09:58.017Z,86278.03
2022-11-03T14:12:30.849Z,86303.59
2022-11-03T14:15:02.092Z,86273.66
2022-11-03T14:17:29.071Z,86269.72
2022-11-03T14:20:00.744Z,86280.81
2022-11-03T14:22:30.736Z,86300.09
2022-11-03T14:24:57.762Z,86305.09
2022-11-03T14:27:25.158Z,86287.25
2022-11-03T14:29:52.280Z,86303.94
2022-11-03T14:32:20.056Z,86299.28
2022-11-03T14:34:47.965Z,86294.09
2022-11-03T14:37:15.291Z,86294.38
2022-11-03T14:39:42.448Z,86293.00
2022-11-03T14:42:16.010Z,86296.84
2022-11-03T14:44:46.956Z,86297.94
2022-11-03T14:47:17.955Z,86294.53
2022-11-03T14:49:46.588Z,86300.38
2022-11-03T14:52:14.292Z,86301.34
2022-11-03T14:54:44.529Z,86310.38
2022-11-03T14:57:11.682Z,86307.50
2022-11-03T14:59:38.670Z,86307.50
2022-11-03T15:02:06.482Z,86307.56
2022-11-03T15:04:33.910Z,86310.91
2022-11-03T15:07:00.963Z,86280.25
2022-11-03T15:09:27.902Z,86298.72
2022-11-03T15:11:55.071Z,86315.19
2022-11-03T15:14:22.010Z,86289.09
2022-11-03T15:16:49.029Z,86313.47
2022-11-03T15:19:16.181Z,86316.44
2022-11-03T15:21:43.272Z,86298.19
2022-11-03T15:26:57.065Z,86310.66
2022-11-03T15:29:24.214Z,86320.13
2022-11-03T15:31:51.904Z,86305.31
2022-11-03T15:34:18.916Z,86323.22
2022-11-03T15:36:45.869Z,86298.56
2022-11-03T15:39:13.554Z,86302.78
2022-11-03T15:41:40.746Z,86323.34
2022-11-03T15:44:07.635Z,86320.97
2022-11-03T15:46:35.802Z,86327.22
2022-11-03T15:49:03.338Z,86302.47
2022-11-03T15:51:30.256Z,86313.56
2022-11-03T15:53:59.088Z,86323.81
2022-11-03T15:56:27.508Z,86323.38
2022-11-03T15:58:54.512Z,86303.84
2022-11-03T16:01:21.575Z,86325.78
2022-11-03T16:03:48.600Z,86299.97
2022-11-03T16:06:15.648Z,86327.09
2022-11-03T16:08:42.547Z,86323.09
2022-11-03T16:11:09.470Z,86308.34
2022-11-03T16:13:36.364Z,86331.81
2022-11-03T16:16:03.657Z,86330.31
2022-11-03T16:18:30.603Z,86331.84
2022-11-03T16:20:57.506Z,86298.22
2022-11-03T16:23:24.507Z,86316.50
2022-11-03T16:25:51.430Z,86320.88
2022-11-03T16:28:18.263Z,86326.66
2022-11-03T16:30:49.718Z,86323.06
2022-11-03T16:33:19.852Z,86333.03
2022-11-03T16:35:46.725Z,86304.00
2022-11-03T16:38:15.502Z,86327.94
2022-11-03T16:40:43.146Z,86296.41
2022-11-03T16:43:10.199Z,86305.56
2022-11-03T16:45:38.075Z,86313.41
2022-11-03T16:48:07.046Z,86330.88
2022-11-03T16:50:34.991Z,86327.66
2022-11-03T16:53:02.150Z,86313.47
2022-11-03T16:55:29.012Z,86331.34
2022-11-03T16:57:56.512Z,86328.44
2022-11-03T17:00:24.634Z,86322.94
2022-11-03T17:02:53.157Z,86282.41
2022-11-03T17:05:21.962Z,86301.06
2022-11-03T17:07:53.596Z,86301.59
2022-11-03T17:10:22.108Z,86305.03
2022-11-03T17:12:50.265Z,86319.44
2022-11-03T17:15:17.833Z,86289.13
2022-11-03T17:17:45.194Z,86311.13
2022-11-03T17:20:13.214Z,86292.09
2022-11-03T17:22:40.484Z,86318.22
2022-11-03T17:25:09.655Z,86257.63
2022-11-03T17:27:46.773Z,86300.25
2022-11-03T17:30:24.960Z,86316.91
2022-11-03T17:32:55.821Z,86309.28
2022-11-03T17:35:42.548Z,86319.22
2022-11-03T17:38:28.405Z,86296.69
2022-11-03T17:40:55.342Z,86281.72
2022-11-03T17:43:27.399Z,86310.56
2022-11-03T17:45:54.526Z,86309.13
2022-11-03T17:48:23.376Z,86315.44
2022-11-03T17:50:53.746Z,86287.97
2022-11-03T17:53:41.775Z,86304.63
2022-11-03T17:56:29.553Z,86273.69
2022-11-03T17:58:57.837Z,86301.16
2022-11-03T18:01:27.667Z,86247.63
2022-11-03T18:03:55.125Z,86283.31
2022-11-03T18:06:22.456Z,86297.75
2022-11-03T18:08:49.994Z,86295.63
2022-11-03T18:11:47.361Z,86298.53
2022-11-03T18:14:14.767Z,86290.34
2022-11-03T18:16:41.884Z,86268.31
2022-11-03T18:19:13.452Z,86295.75
2022-11-03T18:21:41.117Z,86288.16
2022-11-03T18:24:19.716Z,86273.69
2022-11-03T18:26:46.586Z,86286.72
2022-11-03T18:29:13.478Z,86285.31
2022-11-03T18:31:44.221Z,86255.16
2022-11-03T18:34:31.486Z,86273.25
2022-11-03T18:36:58.447Z,86288.28
2022-11-03T18:39:27.982Z,86290.34
2022-11-03T18:41:55.697Z,86286.25
2022-11-03T18:44:28.462Z,86283.53
2022-11-03T18:46:56.255Z,86265.53
2022-11-03T18:49:24.983Z,86245.06
2022-11-03T18:52:02.107Z,86283.66
2022-11-03T18:54:32.295Z,86274.19
2022-11-03T18:56:59.405Z,86286.03
2022-11-03T18:59:29.363Z,86275.72
2022-11-03T19:01:56.680Z,86270.50
2022-11-03T19:04:24.171Z,86257.38
2022-11-03T19:06:52.951Z,86278.09
2022-11-03T19:09:26.150Z,86272.03
2022-11-03T19:11:56.502Z,86268.03
2022-11-03T19:14:28.801Z,86266.63
2022-11-03T19:19:47.387Z,86257.19
2022-11-03T19:22:22.253Z,86277.91
2022-11-03T19:24:49.082Z,86282.84
2022-11-03T19:27:25.687Z,86260.41
2022-11-03T19:29:53.637Z,86240.41
2022-11-03T19:32:33.598Z,86217.66
2022-11-03T19:35:04.950Z,86286.47
2022-11-03T19:37:35.708Z,86287.91
2022-11-03T19:40:09.020Z,86277.00
2022-11-03T19:42:39.771Z,86257.78
2022-11-03T19:45:29.130Z,86279.78
2022-11-03T19:48:23.793Z,86230.25
2022-11-03T19:50:44.724Z,86279.78
2022-11-03T19:53:19.087Z,86274.94
2022-11-03T19:55:46.439Z,86276.94
2022-11-03T19:58:27.438Z,86282.50
2022-11-03T20:00:55.408Z,86272.88
2022-11-03T20:03:23.472Z,86279.78
2022-11-03T20:05:56.668Z,86253.63
2022-11-03T20:08:26.122Z,86270.25
2022-11-03T20:10:53.578Z,86265.44
2022-11-03T20:13:23.590Z,86266.88
2022-11-03T20:15:53.575Z,86288.13
2022-11-03T20:18:22.839Z,86290.91
2022-11-03T20:20:49.869Z,86259.31
2022-11-03T20:23:31.219Z,86288.06
2022-11-03T20:25:58.618Z,86281.84
2022-11-03T20:28:28.575Z,86284.63
2022-11-03T20:30:56.439Z,86270.91
2022-11-03T20:33:24.907Z,86255.16
2022-11-03T20:35:53.558Z,86274.41
2022-11-03T20:38:21.924Z,86252.66
2022-11-03T20:40:55.742Z,86269.16
2022-11-03T20:43:33.297Z,86284.34
2022-11-03T20:46:03.369Z,86270.53
2022-11-03T20:48:30.228Z,86243.72
2022-11-03T20:50:57.505Z,86273.25
2022-11-03T20:53:25.762Z,86264.28
2022-11-03T20:55:53.593Z,86270.53
2022-11-03T20:58:20.636Z,86265.78
2022-11-03T21:00:48.778Z,86268.66
2022-11-03T21:03:57.716Z,86268.00
2022-11-03T21:06:18.799Z,86241.84
2022-11-03T21:08:47.465Z,86267.97
2022-11-03T21:11:28.542Z,86267.34
2022-11-03T21:14:01.381Z,86259.09
2022-11-03T21:16:48.522Z,86233.53
2022-11-03T21:19:42.754Z,86233.56
2022-11-03T21:22:56.650Z,86258.19
2022-11-03T21:25:24.825Z,86234.94
2022-11-03T21:27:54.046Z,86232.84
2022-11-03T21:30:22.544Z,86257.03
2022-11-03T21:32:49.500Z,86240.56
2022-11-03T21:35:19.341Z,86256.34
2022-11-03T21:37:47.244Z,86228.84
2022-11-03T21:40:14.593Z,86236.34
2022-11-03T21:43:00.219Z,86235.75
2022-11-03T21:45:27.455Z,86249.41
2022-11-03T21:48:14.704Z,86162.22
2022-11-03T21:50:43.059Z,86213.78
2022-11-03T21:53:10.908Z,86233.78
2022-11-03T21:55:38.371Z,86242.75
2022-11-03T21:58:05.316Z,86249.69
2022-11-03T22:00:32.570Z,86209.69
2022-11-03T22:03:00.823Z,86197.25
2022-11-03T22:05:28.282Z,86240.69
2022-11-03T22:07:55.474Z,86237.94
2022-11-03T22:10:22.786Z,86183.59
2022-11-03T22:12:49.867Z,86210.44
2022-11-03T22:15:35.415Z,86226.94
2022-11-03T22:18:06.504Z,86233.78
2022-11-03T22:20:54.274Z,86193.88
2022-11-03T22:23:40.063Z,86205.56
2022-11-03T22:26:29.680Z,86183.50
2022-11-03T22:29:17.060Z,86218.63
2022-11-03T22:31:44.405Z,86206.25
2022-11-03T22:34:29.885Z,86217.31
2022-11-03T22:36:56.766Z,86215.94
2022-11-03T22:39:42.484Z,86213.16
2022-11-03T22:42:30.165Z,86214.59
2022-11-03T22:45:16.111Z,86209.78
2022-11-03T22:47:43.053Z,86188.38
2022-11-03T22:50:10.206Z,86188.47
2022-11-03T22:52:37.147Z,86143.00
2022-11-03T22:55:04.904Z,86176.75
2022-11-03T22:57:31.805Z,86202.91
2022-11-03T22:59:58.809Z,86181.53
2022-11-03T23:02:25.814Z,86197.34
2022-11-03T23:04:52.764Z,86174.69
2022-11-03T23:07:19.602Z,86196.66
2022-11-03T23:09:46.553Z,86191.22
2022-11-03T23:12:13.572Z,86192.63
2022-11-03T23:14:59.147Z,86191.94
2022-11-03T23:17:45.958Z,86163.78
2022-11-03T23:20:32.653Z,86187.13
2022-11-03T23:22:59.552Z,86150.72
2022-11-03T23:25:26.416Z,86189.16
2022-11-03T23:27:53.365Z,86171.94
2022-11-03T23:30:20.289Z,86163.00
2022-11-03T23:32:47.137Z,86181.59
2022-11-03T23:35:14.768Z,86154.09
2022-11-03T23:37:41.718Z,86137.56
2022-11-03T23:40:09.150Z,86178.97
2022-11-03T23:42:36.115Z,86141.75
2022-11-03T23:45:21.983Z,86111.47
2022-11-03T23:48:07.803Z,86143.75
2022-11-03T23:50:34.875Z,86136.31
2022-11-03T23:53:01.746Z,86140.47
2022-11-03T23:55:48.996Z,86111.59
2022-11-03T23:58:18.932Z,86152.84
